sensor_id;sensor_type;location;lat;lon;timestamp;P1;durP1;ratioP1;P2;durP2;ratioP2
51292;SDS011;37377;45.186;9.778;2022-12-13T00:00:55;167.32;;;45.92;;
51292;SDS011;37377;45.186;9.778;2022-12-13T00:03:22;118.03;;;42.95;;
51292;SDS011;37377;45.186;9.778;2022-12-13T00:05:49;125.30;;;42.05;;
51292;SDS011;37377;45.186;9.778;2022-12-13T00:08:16;109.03;;;39.35;;
51292;SDS011;37377;45.186;9.778;2022-12-13T00:10:43;120.07;;;41.72;;
51292;SDS011;37377;45.186;9.778;2022-12-13T00:13:09;88.05;;;37.10;;
51292;SDS011;37377;45.186;9.778;2022-12-13T00:15:36;94.88;;;38.33;;
51292;SDS011;37377;45.186;9.778;2022-12-13T00:18:03;92.68;;;38.63;;
51292;SDS011;37377;45.186;9.778;2022-12-13T00:20:30;98.63;;;39.75;;
51292;SDS011;37377;45.186;9.778;2022-12-13T00:22:57;100.30;;;39.75;;
51292;SDS011;37377;45.186;9.778;2022-12-13T00:25:24;92.90;;;37.47;;
51292;SDS011;37377;45.186;9.778;2022-12-13T00:27:51;78.15;;;35.75;;
51292;SDS011;37377;45.186;9.778;2022-12-13T00:30:18;90.07;;;37.08;;
51292;SDS011;37377;45.186;9.778;2022-12-13T00:32:44;72.72;;;34.58;;
51292;SDS011;37377;45.186;9.778;2022-12-13T00:35:11;71.15;;;32.13;;
51292;SDS011;37377;45.186;9.778;2022-12-13T00:37:39;89.55;;;34.47;;
51292;SDS011;37377;45.186;9.778;2022-12-13T00:40:05;89.40;;;35.40;;
51292;SDS011;37377;45.186;9.778;2022-12-13T00:42:33;75.72;;;33.35;;
51292;SDS011;37377;45.186;9.778;2022-12-13T00:45:00;72.63;;;33.13;;
51292;SDS011;37377;45.186;9.778;2022-12-13T00:47:27;68.72;;;33.15;;
51292;SDS011;37377;45.186;9.778;2022-12-13T00:49:53;75.68;;;34.22;;
51292;SDS011;37377;45.186;9.778;2022-12-13T00:52:20;78.90;;;32.28;;
51292;SDS011;37377;45.186;9.778;2022-12-13T00:54:47;72.25;;;31.42;;
51292;SDS011;37377;45.186;9.778;2022-12-13T00:57:14;81.28;;;33.13;;
51292;SDS011;37377;45.186;9.778;2022-12-13T00:59:41;75.18;;;33.35;;
51292;SDS011;37377;45.186;9.778;2022-12-13T01:02:07;70.28;;;32.55;;
51292;SDS011;37377;45.186;9.778;2022-12-13T01:04:35;73.10;;;32.65;;
51292;SDS011;37377;45.186;9.778;2022-12-13T01:07:02;72.00;;;32.00;;
51292;SDS011;37377;45.186;9.778;2022-12-13T01:09:28;74.53;;;32.58;;
51292;SDS011;37377;45.186;9.778;2022-12-13T01:12:01;74.30;;;33.40;;
51292;SDS011;37377;45.186;9.778;2022-12-13T01:14:28;78.38;;;32.47;;
51292;SDS011;37377;45.186;9.778;2022-12-13T01:16:55;68.00;;;31.80;;
51292;SDS011;37377;45.186;9.778;2022-12-13T01:19:22;67.07;;;32.45;;
51292;SDS011;37377;45.186;9.778;2022-12-13T01:21:52;68.50;;;30.88;;
51292;SDS011;37377;45.186;9.778;2022-12-13T01:24:19;64.50;;;30.33;;
51292;SDS011;37377;45.186;9.778;2022-12-13T01:26:48;68.47;;;31.13;;
51292;SDS011;37377;45.186;9.778;2022-12-13T01:29:15;74.35;;;33.97;;
51292;SDS011;37377;45.186;9.778;2022-12-13T01:31:42;75.68;;;35.13;;
51292;SDS011;37377;45.186;9.778;2022-12-13T01:34:09;69.85;;;31.88;;
51292;SDS011;37377;45.186;9.778;2022-12-13T01:36:37;69.05;;;33.00;;
51292;SDS011;37377;45.186;9.778;2022-12-13T01:39:04;69.55;;;32.15;;
51292;SDS011;37377;45.186;9.778;2022-12-13T01:41:41;69.78;;;32.78;;
51292;SDS011;37377;45.186;9.778;2022-12-13T01:46:53;76.68;;;33.15;;
51292;SDS011;37377;45.186;9.778;2022-12-13T01:49:20;66.97;;;32.28;;
51292;SDS011;37377;45.186;9.778;2022-12-13T01:51:50;69.07;;;31.48;;
51292;SDS011;37377;45.186;9.778;2022-12-13T01:54:20;70.28;;;33.50;;
51292;SDS011;37377;45.186;9.778;2022-12-13T01:56:48;70.05;;;31.20;;
51292;SDS011;37377;45.186;9.778;2022-12-13T01:59:17;69.22;;;31.67;;
51292;SDS011;37377;45.186;9.778;2022-12-13T02:01:46;71.28;;;31.75;;
51292;SDS011;37377;45.186;9.778;2022-12-13T02:04:13;67.75;;;31.42;;
51292;SDS011;37377;45.186;9.778;2022-12-13T02:06:42;67.03;;;29.83;;
51292;SDS011;37377;45.186;9.778;2022-12-13T02:09:10;59.65;;;31.25;;
51292;SDS011;37377;45.186;9.778;2022-12-13T02:11:38;62.90;;;29.73;;
51292;SDS011;37377;45.186;9.778;2022-12-13T02:14:06;61.90;;;29.05;;
51292;SDS011;37377;45.186;9.778;2022-12-13T02:19:43;56.22;;;29.65;;
51292;SDS011;37377;45.186;9.778;2022-12-13T02:32:56;57.30;;;27.92;;
51292;SDS011;37377;45.186;9.778;2022-12-13T02:35:33;57.00;;;27.45;;
51292;SDS011;37377;45.186;9.778;2022-12-13T02:43:30;72.95;;;34.05;;
51292;SDS011;37377;45.186;9.778;2022-12-13T02:46:00;71.28;;;32.88;;
51292;SDS011;37377;45.186;9.778;2022-12-13T02:48:31;75.25;;;33.75;;
51292;SDS011;37377;45.186;9.778;2022-12-13T02:51:02;70.30;;;31.15;;
51292;SDS011;37377;45.186;9.778;2022-12-13T02:53:30;74.60;;;31.85;;
51292;SDS011;37377;45.186;9.778;2022-12-13T02:55:59;67.53;;;30.73;;
51292;SDS011;37377;45.186;9.778;2022-12-13T02:58:31;68.32;;;30.80;;
51292;SDS011;37377;45.186;9.778;2022-12-13T03:01:16;64.93;;;30.63;;
51292;SDS011;37377;45.186;9.778;2022-12-13T03:14:57;56.30;;;28.45;;
51292;SDS011;37377;45.186;9.778;2022-12-13T03:17:25;59.40;;;28.60;;
51292;SDS011;37377;45.186;9.778;2022-12-13T03:19:52;61.05;;;28.80;;
51292;SDS011;37377;45.186;9.778;2022-12-13T03:22:19;53.95;;;28.08;;
51292;SDS011;37377;45.186;9.778;2022-12-13T03:24:46;59.90;;;28.17;;
51292;SDS011;37377;45.186;9.778;2022-12-13T03:27:13;54.17;;;28.13;;
51292;SDS011;37377;45.186;9.778;2022-12-13T03:29:41;52.92;;;27.85;;
51292;SDS011;37377;45.186;9.778;2022-12-13T03:32:07;52.20;;;28.02;;
51292;SDS011;37377;45.186;9.778;2022-12-13T03:34:34;50.85;;;27.98;;
51292;SDS011;37377;45.186;9.778;2022-12-13T03:37:10;51.85;;;27.85;;
51292;SDS011;37377;45.186;9.778;2022-12-13T03:39:37;50.90;;;28.27;;
51292;SDS011;37377;45.186;9.778;2022-12-13T03:42:04;51.67;;;27.35;;
51292;SDS011;37377;45.186;9.778;2022-12-13T03:44:32;56.53;;;28.33;;
51292;SDS011;37377;45.186;9.778;2022-12-13T03:46:59;55.35;;;27.05;;
51292;SDS011;37377;45.186;9.778;2022-12-13T03:49:26;56.70;;;27.60;;
51292;SDS011;37377;45.186;9.778;2022-12-13T03:52:00;59.13;;;27.17;;
51292;SDS011;37377;45.186;9.778;2022-12-13T03:54:27;54.70;;;27.08;;
51292;SDS011;37377;45.186;9.778;2022-12-13T03:56:54;57.75;;;30.23;;
51292;SDS011;37377;45.186;9.778;2022-12-13T03:59:20;60.03;;;29.27;;
51292;SDS011;37377;45.186;9.778;2022-12-13T04:01:47;59.13;;;28.60;;
51292;SDS011;37377;45.186;9.778;2022-12-13T04:04:14;63.25;;;28.65;;
51292;SDS011;37377;45.186;9.778;2022-12-13T04:06:41;57.45;;;27.63;;
51292;SDS011;37377;45.186;9.778;2022-12-13T04:09:08;55.10;;;28.98;;
51292;SDS011;37377;45.186;9.778;2022-12-13T04:11:34;51.75;;;28.38;;
51292;SDS011;37377;45.186;9.778;2022-12-13T04:14:19;58.35;;;27.63;;
51292;SDS011;37377;45.186;9.778;2022-12-13T04:16:49;60.20;;;29.63;;
51292;SDS011;37377;45.186;9.778;2022-12-13T04:19:16;53.65;;;28.05;;
51292;SDS011;37377;45.186;9.778;2022-12-13T04:21:49;56.38;;;27.15;;
51292;SDS011;37377;45.186;9.778;2022-12-13T04:24:16;51.33;;;27.48;;
51292;SDS011;37377;45.186;9.778;2022-12-13T04:26:44;53.35;;;27.67;;
51292;SDS011;37377;45.186;9.778;2022-12-13T04:29:11;50.58;;;28.23;;
51292;SDS011;37377;45.186;9.778;2022-12-13T04:31:39;45.78;;;25.48;;
51292;SDS011;37377;45.186;9.778;2022-12-13T04:34:06;51.35;;;25.85;;
51292;SDS011;37377;45.186;9.778;2022-12-13T04:36:33;47.83;;;25.63;;
51292;SDS011;37377;45.186;9.778;2022-12-13T04:39:00;50.85;;;27.02;;
51292;SDS011;37377;45.186;9.778;2022-12-13T04:41:33;44.97;;;25.73;;
51292;SDS011;37377;45.186;9.778;2022-12-13T04:44:00;52.63;;;26.67;;
51292;SDS011;37377;45.186;9.778;2022-12-13T04:46:27;51.03;;;27.63;;
51292;SDS011;37377;45.186;9.778;2022-12-13T04:48:54;55.33;;;28.80;;
51292;SDS011;37377;45.186;9.778;2022-12-13T04:51:20;53.40;;;27.05;;
51292;SDS011;37377;45.186;9.778;2022-12-13T04:53:47;49.72;;;27.25;;
51292;SDS011;37377;45.186;9.778;2022-12-13T04:56:14;50.45;;;26.45;;
51292;SDS011;37377;45.186;9.778;2022-12-13T04:58:45;45.55;;;26.05;;
51292;SDS011;37377;45.186;9.778;2022-12-13T05:01:14;47.05;;;24.88;;
51292;SDS011;37377;45.186;9.778;2022-12-13T05:03:41;49.83;;;25.48;;
51292;SDS011;37377;45.186;9.778;2022-12-13T05:06:09;53.83;;;27.33;;
51292;SDS011;37377;45.186;9.778;2022-12-13T05:08:53;48.75;;;25.25;;
51292;SDS011;37377;45.186;9.778;2022-12-13T05:11:26;54.07;;;25.77;;
51292;SDS011;37377;45.186;9.778;2022-12-13T05:14:01;49.70;;;26.10;;
51292;SDS011;37377;45.186;9.778;2022-12-13T05:16:28;46.63;;;25.25;;
51292;SDS011;37377;45.186;9.778;2022-12-13T05:18:55;49.83;;;25.17;;
51292;SDS011;37377;45.186;9.778;2022-12-13T05:21:22;46.92;;;25.65;;
51292;SDS011;37377;45.186;9.778;2022-12-13T05:23:49;49.50;;;26.40;;
51292;SDS011;37377;45.186;9.778;2022-12-13T05:26:16;57.83;;;27.67;;
51292;SDS011;37377;45.186;9.778;2022-12-13T05:28:43;47.80;;;26.40;;
51292;SDS011;37377;45.186;9.778;2022-12-13T05:31:10;59.42;;;30.35;;
51292;SDS011;37377;45.186;9.778;2022-12-13T05:33:53;50.67;;;26.30;;
51292;SDS011;37377;45.186;9.778;2022-12-13T05:36:27;53.75;;;28.17;;
51292;SDS011;37377;45.186;9.778;2022-12-13T05:38:54;52.25;;;28.35;;
51292;SDS011;37377;45.186;9.778;2022-12-13T05:41:22;57.30;;;28.85;;
51292;SDS011;37377;45.186;9.778;2022-12-13T05:43:51;57.28;;;29.75;;
51292;SDS011;37377;45.186;9.778;2022-12-13T05:46:18;56.97;;;29.70;;
51292;SDS011;37377;45.186;9.778;2022-12-13T05:48:45;61.08;;;30.40;;
51292;SDS011;37377;45.186;9.778;2022-12-13T05:51:12;62.15;;;31.70;;
51292;SDS011;37377;45.186;9.778;2022-12-13T05:53:39;51.45;;;27.75;;
51292;SDS011;37377;45.186;9.778;2022-12-13T05:56:07;56.25;;;27.88;;
51292;SDS011;37377;45.186;9.778;2022-12-13T05:58:35;53.22;;;28.27;;
51292;SDS011;37377;45.186;9.778;2022-12-13T06:01:06;58.50;;;27.88;;
51292;SDS011;37377;45.186;9.778;2022-12-13T06:03:33;50.97;;;27.17;;
51292;SDS011;37377;45.186;9.778;2022-12-13T06:06:00;46.08;;;27.13;;
51292;SDS011;37377;45.186;9.778;2022-12-13T06:08:28;57.65;;;28.38;;
51292;SDS011;37377;45.186;9.778;2022-12-13T06:10:59;51.28;;;26.83;;
51292;SDS011;37377;45.186;9.778;2022-12-13T06:13:38;49.13;;;26.50;;
51292;SDS011;37377;45.186;9.778;2022-12-13T06:16:09;51.85;;;25.65;;
51292;SDS011;37377;45.186;9.778;2022-12-13T06:18:50;56.33;;;28.10;;
51292;SDS011;37377;45.186;9.778;2022-12-13T06:21:26;57.88;;;28.10;;
51292;SDS011;37377;45.186;9.778;2022-12-13T06:23:53;63.25;;;32.08;;
51292;SDS011;37377;45.186;9.778;2022-12-13T06:26:20;57.33;;;29.63;;
51292;SDS011;37377;45.186;9.778;2022-12-13T06:28:47;62.17;;;30.80;;
51292;SDS011;37377;45.186;9.778;2022-12-13T06:31:13;58.55;;;31.00;;
51292;SDS011;37377;45.186;9.778;2022-12-13T06:33:40;58.47;;;29.85;;
51292;SDS011;37377;45.186;9.778;2022-12-13T06:36:07;57.55;;;29.63;;
51292;SDS011;37377;45.186;9.778;2022-12-13T06:38:34;58.67;;;30.27;;
51292;SDS011;37377;45.186;9.778;2022-12-13T06:41:13;60.70;;;30.77;;
51292;SDS011;37377;45.186;9.778;2022-12-13T06:43:40;54.67;;;27.83;;
51292;SDS011;37377;45.186;9.778;2022-12-13T06:46:08;56.88;;;29.17;;
51292;SDS011;37377;45.186;9.778;2022-12-13T06:48:35;54.63;;;28.50;;
51292;SDS011;37377;45.186;9.778;2022-12-13T06:51:02;56.15;;;29.40;;
51292;SDS011;37377;45.186;9.778;2022-12-13T06:53:30;51.28;;;27.33;;
51292;SDS011;37377;45.186;9.778;2022-12-13T06:56:01;51.10;;;28.33;;
51292;SDS011;37377;45.186;9.778;2022-12-13T06:58:29;56.45;;;28.35;;
51292;SDS011;37377;45.186;9.778;2022-12-13T07:01:04;51.42;;;26.88;;
51292;SDS011;37377;45.186;9.778;2022-12-13T07:06:14;53.20;;;25.13;;
51292;SDS011;37377;45.186;9.778;2022-12-13T07:08:43;50.53;;;26.92;;
51292;SDS011;37377;45.186;9.778;2022-12-13T07:11:14;52.75;;;26.42;;
51292;SDS011;37377;45.186;9.778;2022-12-13T07:13:41;48.67;;;26.38;;
51292;SDS011;37377;45.186;9.778;2022-12-13T07:16:09;49.75;;;26.13;;
51292;SDS011;37377;45.186;9.778;2022-12-13T07:18:37;55.17;;;28.58;;
51292;SDS011;37377;45.186;9.778;2022-12-13T07:21:04;53.33;;;28.33;;
51292;SDS011;37377;45.186;9.778;2022-12-13T07:23:33;55.13;;;27.92;;
51292;SDS011;37377;45.186;9.778;2022-12-13T07:26:01;57.05;;;28.58;;
51292;SDS011;37377;45.186;9.778;2022-12-13T07:28:30;56.85;;;27.38;;
51292;SDS011;37377;45.186;9.778;2022-12-13T07:30:59;52.72;;;28.48;;
51292;SDS011;37377;45.186;9.778;2022-12-13T07:33:26;58.28;;;28.70;;
51292;SDS011;37377;45.186;9.778;2022-12-13T07:36:05;52.63;;;28.13;;
51292;SDS011;37377;45.186;9.778;2022-12-13T07:38:33;58.65;;;27.90;;
51292;SDS011;37377;45.186;9.778;2022-12-13T07:41:00;59.95;;;30.90;;
51292;SDS011;37377;45.186;9.778;2022-12-13T07:43:27;54.05;;;29.00;;
51292;SDS011;37377;45.186;9.778;2022-12-13T07:45:58;60.38;;;28.45;;
51292;SDS011;37377;45.186;9.778;2022-12-13T07:48:26;55.60;;;28.63;;
51292;SDS011;37377;45.186;9.778;2022-12-13T07:50:53;58.38;;;30.42;;
51292;SDS011;37377;45.186;9.778;2022-12-13T07:53:20;51.28;;;29.13;;
51292;SDS011;37377;45.186;9.778;2022-12-13T07:55:48;50.70;;;27.35;;
51292;SDS011;37377;45.186;9.778;2022-12-13T07:58:15;51.75;;;28.30;;
51292;SDS011;37377;45.186;9.778;2022-12-13T08:00:44;58.22;;;27.38;;
51292;SDS011;37377;45.186;9.778;2022-12-13T08:03:16;51.58;;;26.08;;
51292;SDS011;37377;45.186;9.778;2022-12-13T08:08:28;53.83;;;26.33;;
51292;SDS011;37377;45.186;9.778;2022-12-13T08:11:04;59.63;;;27.55;;
51292;SDS011;37377;45.186;9.778;2022-12-13T08:13:31;59.25;;;27.75;;
51292;SDS011;37377;45.186;9.778;2022-12-13T08:15:59;55.20;;;28.10;;
51292;SDS011;37377;45.186;9.778;2022-12-13T08:18:27;55.97;;;28.45;;
51292;SDS011;37377;45.186;9.778;2022-12-13T08:20:58;54.72;;;27.45;;
51292;SDS011;37377;45.186;9.778;2022-12-13T08:23:26;62.05;;;29.85;;
51292;SDS011;37377;45.186;9.778;2022-12-13T08:25:55;52.22;;;27.83;;
51292;SDS011;37377;45.186;9.778;2022-12-13T08:28:22;55.67;;;28.38;;
51292;SDS011;37377;45.186;9.778;2022-12-13T08:30:49;54.05;;;29.27;;
51292;SDS011;37377;45.186;9.778;2022-12-13T08:33:17;54.40;;;28.63;;
51292;SDS011;37377;45.186;9.778;2022-12-13T08:35:44;57.20;;;27.58;;
51292;SDS011;37377;45.186;9.778;2022-12-13T08:38:11;52.42;;;28.42;;
51292;SDS011;37377;45.186;9.778;2022-12-13T08:40:49;60.70;;;30.88;;
51292;SDS011;37377;45.186;9.778;2022-12-13T08:43:17;59.70;;;29.55;;
51292;SDS011;37377;45.186;9.778;2022-12-13T08:45:50;54.50;;;28.17;;
51292;SDS011;37377;45.186;9.778;2022-12-13T08:48:17;58.85;;;29.55;;
51292;SDS011;37377;45.186;9.778;2022-12-13T08:50:44;53.28;;;27.00;;
51292;SDS011;37377;45.186;9.778;2022-12-13T08:53:11;54.13;;;28.40;;
51292;SDS011;37377;45.186;9.778;2022-12-13T08:55:59;60.65;;;29.80;;
51292;SDS011;37377;45.186;9.778;2022-12-13T08:58:26;51.70;;;28.50;;
51292;SDS011;37377;45.186;9.778;2022-12-13T09:00:54;50.55;;;28.40;;
51292;SDS011;37377;45.186;9.778;2022-12-13T09:03:23;52.33;;;28.25;;
51292;SDS011;37377;45.186;9.778;2022-12-13T09:05:50;54.53;;;27.90;;
51292;SDS011;37377;45.186;9.778;2022-12-13T09:08:17;52.45;;;26.70;;
51292;SDS011;37377;45.186;9.778;2022-12-13T09:10:55;51.88;;;26.73;;
51292;SDS011;37377;45.186;9.778;2022-12-13T09:13:27;50.85;;;26.23;;
51292;SDS011;37377;45.186;9.778;2022-12-13T09:16:01;54.75;;;28.42;;
51292;SDS011;37377;45.186;9.778;2022-12-13T09:18:29;55.47;;;29.80;;
51292;SDS011;37377;45.186;9.778;2022-12-13T09:21:06;61.35;;;28.83;;
51292;SDS011;37377;45.186;9.778;2022-12-13T09:23:38;51.97;;;28.17;;
51292;SDS011;37377;45.186;9.778;2022-12-13T09:28:40;50.17;;;25.35;;
51292;SDS011;37377;45.186;9.778;2022-12-13T09:31:09;53.10;;;27.13;;
51292;SDS011;37377;45.186;9.778;2022-12-13T09:33:36;52.92;;;26.27;;
51292;SDS011;37377;45.186;9.778;2022-12-13T09:36:08;50.65;;;28.33;;
51292;SDS011;37377;45.186;9.778;2022-12-13T09:38:36;56.78;;;27.58;;
51292;SDS011;37377;45.186;9.778;2022-12-13T09:44:05;55.17;;;26.23;;
51292;SDS011;37377;45.186;9.778;2022-12-13T09:46:53;52.67;;;28.02;;
51292;SDS011;37377;45.186;9.778;2022-12-13T09:51:54;49.25;;;25.98;;
51292;SDS011;37377;45.186;9.778;2022-12-13T09:54:37;52.63;;;26.60;;
51292;SDS011;37377;45.186;9.778;2022-12-13T09:57:18;50.55;;;26.77;;
51292;SDS011;37377;45.186;9.778;2022-12-13T09:59:59;47.97;;;25.65;;
51292;SDS011;37377;45.186;9.778;2022-12-13T10:02:38;53.55;;;27.23;;
51292;SDS011;37377;45.186;9.778;2022-12-13T10:07:50;54.25;;;26.73;;
51292;SDS011;37377;45.186;9.778;2022-12-13T10:10:18;45.45;;;26.35;;
51292;SDS011;37377;45.186;9.778;2022-12-13T10:12:45;58.47;;;31.52;;
51292;SDS011;37377;45.186;9.778;2022-12-13T10:15:16;48.45;;;25.80;;
51292;SDS011;37377;45.186;9.778;2022-12-13T10:17:48;47.35;;;24.83;;
51292;SDS011;37377;45.186;9.778;2022-12-13T10:20:21;41.15;;;23.20;;
51292;SDS011;37377;45.186;9.778;2022-12-13T10:22:51;46.42;;;24.88;;
51292;SDS011;37377;45.186;9.778;2022-12-13T10:25:51;39.90;;;22.95;;
51292;SDS011;37377;45.186;9.778;2022-12-13T10:28:30;42.03;;;23.30;;
51292;SDS011;37377;45.186;9.778;2022-12-13T10:30:57;40.45;;;23.45;;
51292;SDS011;37377;45.186;9.778;2022-12-13T10:33:26;43.25;;;24.67;;
51292;SDS011;37377;45.186;9.778;2022-12-13T10:38:33;46.05;;;24.88;;
51292;SDS011;37377;45.186;9.778;2022-12-13T10:41:01;41.20;;;23.88;;
51292;SDS011;37377;45.186;9.778;2022-12-13T10:43:27;45.08;;;26.15;;
51292;SDS011;37377;45.186;9.778;2022-12-13T10:51:11;54.42;;;27.75;;
51292;SDS011;37377;45.186;9.778;2022-12-13T10:53:39;39.95;;;24.42;;
51292;SDS011;37377;45.186;9.778;2022-12-13T10:56:13;37.08;;;22.33;;
51292;SDS011;37377;45.186;9.778;2022-12-13T10:58:51;37.33;;;22.08;;
51292;SDS011;37377;45.186;9.778;2022-12-13T11:01:20;37.08;;;22.25;;
51292;SDS011;37377;45.186;9.778;2022-12-13T11:04:00;39.92;;;23.58;;
51292;SDS011;37377;45.186;9.778;2022-12-13T11:06:42;39.38;;;23.85;;
51292;SDS011;37377;45.186;9.778;2022-12-13T11:09:23;43.38;;;26.05;;
51292;SDS011;37377;45.186;9.778;2022-12-13T11:11:50;38.42;;;23.33;;
51292;SDS011;37377;45.186;9.778;2022-12-13T11:14:33;35.80;;;21.65;;
51292;SDS011;37377;45.186;9.778;2022-12-13T11:19:39;33.88;;;20.92;;
51292;SDS011;37377;45.186;9.778;2022-12-13T11:22:09;34.80;;;22.42;;
51292;SDS011;37377;45.186;9.778;2022-12-13T11:24:47;41.58;;;24.00;;
51292;SDS011;37377;45.186;9.778;2022-12-13T11:27:20;36.78;;;22.83;;
51292;SDS011;37377;45.186;9.778;2022-12-13T11:30:34;44.65;;;27.08;;
51292;SDS011;37377;45.186;9.778;2022-12-13T11:32:45;44.92;;;26.02;;
51292;SDS011;37377;45.186;9.778;2022-12-13T11:37:57;36.58;;;23.35;;
51292;SDS011;37377;45.186;9.778;2022-12-13T11:40:26;40.42;;;24.90;;
51292;SDS011;37377;45.186;9.778;2022-12-13T11:42:56;42.47;;;25.33;;
51292;SDS011;37377;45.186;9.778;2022-12-13T11:45:36;42.75;;;26.70;;
51292;SDS011;37377;45.186;9.778;2022-12-13T11:50:41;39.38;;;23.38;;
51292;SDS011;37377;45.186;9.778;2022-12-13T11:53:15;36.08;;;22.95;;
51292;SDS011;37377;45.186;9.778;2022-12-13T11:55:56;48.13;;;26.45;;
51292;SDS011;37377;45.186;9.778;2022-12-13T12:01:50;35.40;;;21.40;;
51292;SDS011;37377;45.186;9.778;2022-12-13T12:04:20;37.45;;;21.73;;
51292;SDS011;37377;45.186;9.778;2022-12-13T12:09:19;36.20;;;23.15;;
51292;SDS011;37377;45.186;9.778;2022-12-13T12:12:05;36.50;;;23.15;;
51292;SDS011;37377;45.186;9.778;2022-12-13T12:17:01;42.90;;;26.33;;
51292;SDS011;37377;45.186;9.778;2022-12-13T12:19:29;33.40;;;22.65;;
51292;SDS011;37377;45.186;9.778;2022-12-13T12:30:12;33.63;;;22.20;;
51292;SDS011;37377;45.186;9.778;2022-12-13T12:43:40;33.38;;;21.48;;
51292;SDS011;37377;45.186;9.778;2022-12-13T12:46:53;30.60;;;20.25;;
51292;SDS011;37377;45.186;9.778;2022-12-13T12:49:30;31.23;;;20.23;;
51292;SDS011;37377;45.186;9.778;2022-12-13T12:52:05;31.48;;;19.38;;
51292;SDS011;37377;45.186;9.778;2022-12-13T12:59:44;30.05;;;20.40;;
51292;SDS011;37377;45.186;9.778;2022-12-13T13:04:51;29.27;;;19.30;;
51292;SDS011;37377;45.186;9.778;2022-12-13T13:07:25;25.55;;;18.38;;
51292;SDS011;37377;45.186;9.778;2022-12-13T13:09:54;34.00;;;20.35;;
51292;SDS011;37377;45.186;9.778;2022-12-13T13:12:22;28.10;;;18.42;;
51292;SDS011;37377;45.186;9.778;2022-12-13T13:22:38;27.10;;;17.85;;
51292;SDS011;37377;45.186;9.778;2022-12-13T13:27:39;29.65;;;19.05;;
51292;SDS011;37377;45.186;9.778;2022-12-13T13:30:23;29.75;;;19.30;;
51292;SDS011;37377;45.186;9.778;2022-12-13T13:32:51;27.00;;;18.27;;
51292;SDS011;37377;45.186;9.778;2022-12-13T13:37:59;27.48;;;18.63;;
51292;SDS011;37377;45.186;9.778;2022-12-13T13:50:50;23.70;;;17.58;;
51292;SDS011;37377;45.186;9.778;2022-12-13T13:53:33;27.08;;;17.23;;
51292;SDS011;37377;45.186;9.778;2022-12-13T14:21:03;23.58;;;15.95;;
51292;SDS011;37377;45.186;9.778;2022-12-13T14:23:48;21.25;;;14.70;;
51292;SDS011;37377;45.186;9.778;2022-12-13T14:31:17;19.13;;;14.73;;
51292;SDS011;37377;45.186;9.778;2022-12-13T14:33:48;24.05;;;15.70;;
51292;SDS011;37377;45.186;9.778;2022-12-13T14:36:21;21.52;;;15.13;;
51292;SDS011;37377;45.186;9.778;2022-12-13T14:38:58;19.52;;;14.60;;
51292;SDS011;37377;45.186;9.778;2022-12-13T14:41:24;22.05;;;14.95;;
51292;SDS011;37377;45.186;9.778;2022-12-13T14:43:51;21.33;;;16.48;;
51292;SDS011;37377;45.186;9.778;2022-12-13T14:46:18;30.10;;;20.15;;
51292;SDS011;37377;45.186;9.778;2022-12-13T14:48:45;30.02;;;19.95;;
51292;SDS011;37377;45.186;9.778;2022-12-13T14:51:20;37.40;;;20.98;;
51292;SDS011;37377;45.186;9.778;2022-12-13T14:53:49;30.92;;;20.15;;
51292;SDS011;37377;45.186;9.778;2022-12-13T14:56:17;30.02;;;19.77;;
51292;SDS011;37377;45.186;9.778;2022-12-13T14:58:56;32.22;;;20.92;;
51292;SDS011;37377;45.186;9.778;2022-12-13T15:01:25;32.83;;;19.08;;
51292;SDS011;37377;45.186;9.778;2022-12-13T15:06:43;22.58;;;17.20;;
51292;SDS011;37377;45.186;9.778;2022-12-13T15:09:14;32.03;;;22.33;;
51292;SDS011;37377;45.186;9.778;2022-12-13T15:11:42;28.60;;;19.73;;
51292;SDS011;37377;45.186;9.778;2022-12-13T15:14:27;36.13;;;21.60;;
51292;SDS011;37377;45.186;9.778;2022-12-13T15:16:55;32.65;;;19.35;;
51292;SDS011;37377;45.186;9.778;2022-12-13T15:19:26;26.92;;;18.80;;
51292;SDS011;37377;45.186;9.778;2022-12-13T15:22:02;25.52;;;17.92;;
51292;SDS011;37377;45.186;9.778;2022-12-13T15:24:33;28.00;;;18.10;;
51292;SDS011;37377;45.186;9.778;2022-12-13T15:27:04;24.40;;;18.00;;
51292;SDS011;37377;45.186;9.778;2022-12-13T15:29:31;30.58;;;19.48;;
51292;SDS011;37377;45.186;9.778;2022-12-13T15:31:58;28.75;;;18.42;;
51292;SDS011;37377;45.186;9.778;2022-12-13T15:37:03;36.67;;;19.17;;
51292;SDS011;37377;45.186;9.778;2022-12-13T15:39:34;25.05;;;17.05;;
51292;SDS011;37377;45.186;9.778;2022-12-13T15:42:01;24.95;;;16.70;;
51292;SDS011;37377;45.186;9.778;2022-12-13T15:44:37;28.77;;;17.48;;
51292;SDS011;37377;45.186;9.778;2022-12-13T15:47:13;23.17;;;17.25;;
51292;SDS011;37377;45.186;9.778;2022-12-13T15:50:04;28.77;;;15.80;;
51292;SDS011;37377;45.186;9.778;2022-12-13T15:52:36;27.35;;;16.95;;
51292;SDS011;37377;45.186;9.778;2022-12-13T15:57:46;24.42;;;16.95;;
51292;SDS011;37377;45.186;9.778;2022-12-13T16:08:23;29.23;;;18.67;;
51292;SDS011;37377;45.186;9.778;2022-12-13T16:10:52;32.22;;;20.38;;
51292;SDS011;37377;45.186;9.778;2022-12-13T16:13:29;35.47;;;20.65;;
51292;SDS011;37377;45.186;9.778;2022-12-13T16:16:00;35.03;;;19.25;;
51292;SDS011;37377;45.186;9.778;2022-12-13T16:18:45;27.35;;;18.25;;
51292;SDS011;37377;45.186;9.778;2022-12-13T16:21:16;30.20;;;19.25;;
51292;SDS011;37377;45.186;9.778;2022-12-13T16:23:43;33.17;;;20.85;;
51292;SDS011;37377;45.186;9.778;2022-12-13T16:26:19;29.02;;;19.33;;
51292;SDS011;37377;45.186;9.778;2022-12-13T16:28:46;25.40;;;18.42;;
51292;SDS011;37377;45.186;9.778;2022-12-13T16:31:15;27.63;;;17.05;;
51292;SDS011;37377;45.186;9.778;2022-12-13T16:33:42;28.77;;;17.30;;
51292;SDS011;37377;45.186;9.778;2022-12-13T16:36:10;30.90;;;18.83;;
51292;SDS011;37377;45.186;9.778;2022-12-13T16:38:37;28.27;;;17.88;;
51292;SDS011;37377;45.186;9.778;2022-12-13T16:41:03;30.15;;;16.85;;
51292;SDS011;37377;45.186;9.778;2022-12-13T16:43:36;27.60;;;16.60;;
51292;SDS011;37377;45.186;9.778;2022-12-13T16:46:04;28.88;;;17.88;;
51292;SDS011;37377;45.186;9.778;2022-12-13T16:48:52;26.15;;;16.98;;
51292;SDS011;37377;45.186;9.778;2022-12-13T16:51:19;27.80;;;16.98;;
51292;SDS011;37377;45.186;9.778;2022-12-13T16:53:46;25.10;;;16.65;;
51292;SDS011;37377;45.186;9.778;2022-12-13T16:56:13;24.33;;;16.70;;
51292;SDS011;37377;45.186;9.778;2022-12-13T16:58:42;27.33;;;17.27;;
51292;SDS011;37377;45.186;9.778;2022-12-13T17:01:17;26.25;;;17.00;;
51292;SDS011;37377;45.186;9.778;2022-12-13T17:03:45;26.08;;;16.85;;
51292;SDS011;37377;45.186;9.778;2022-12-13T17:06:12;23.38;;;16.52;;
51292;SDS011;37377;45.186;9.778;2022-12-13T17:08:40;25.48;;;17.38;;
51292;SDS011;37377;45.186;9.778;2022-12-13T17:11:07;24.33;;;16.35;;
51292;SDS011;37377;45.186;9.778;2022-12-13T17:13:44;24.80;;;17.48;;
51292;SDS011;37377;45.186;9.778;2022-12-13T17:16:13;29.35;;;18.70;;
51292;SDS011;37377;45.186;9.778;2022-12-13T17:18:40;25.80;;;17.60;;
51292;SDS011;37377;45.186;9.778;2022-12-13T17:21:08;28.33;;;17.75;;
51292;SDS011;37377;45.186;9.778;2022-12-13T17:23:35;30.63;;;17.08;;
51292;SDS011;37377;45.186;9.778;2022-12-13T17:26:05;24.20;;;16.88;;
51292;SDS011;37377;45.186;9.778;2022-12-13T17:28:32;29.40;;;18.23;;